Time;durP1;ratioP1;P1;durP2;ratioP2;P2;SDS_P1;SDS_P2;PMS_P1;PMS_P2;Temp;Humidity;BMP_temperature;BMP_pressure;BME280_temperature;BME280_humidity;BME280_pressure;Samples;Min_cycle;Max_cycle;Signal;HPM_P1;HPM_P2
2022/06/06 00:01:25;;;;;;;2.70;2.50;;;16.60;99.90;;;;;;4972019;28;20272;-65
2022/06/06 00:03:50;;;;;;;3.20;3.00;;;16.50;99.90;;;;;;4974417;28;20298;-65
2022/06/06 00:06:20;;;;;;;3.77;2.73;;;16.50;99.90;;;;;;4974629;28;20263;-64
2022/06/06 00:08:46;;;;;;;3.47;3.17;;;16.50;99.90;;;;;;4975943;28;20215;-65
2022/06/06 00:11:12;;;;;;;3.40;3.10;;;16.50;99.90;;;;;;4967694;28;20191;-65
2022/06/06 00:13:41;;;;;;;4.00;3.13;;;16.60;99.90;;;;;;4974454;28;20177;-67
2022/06/06 00:16:08;;;;;;;3.00;2.80;;;16.60;99.90;;;;;;4970563;28;20541;-64
2022/06/06 00:18:35;;;;;;;5.13;3.60;;;16.40;99.90;;;;;;4970340;28;20204;-64
2022/06/06 00:21:02;;;;;;;3.60;3.25;;;16.30;99.90;;;;;;4973911;28;20187;-64
2022/06/06 00:23:28;;;;;;;3.65;2.97;;;16.50;99.90;;;;;;4972934;28;20235;-64
2022/06/06 00:25:54;;;;;;;3.67;3.47;;;16.40;99.90;;;;;;4976027;28;20282;-65
2022/06/06 00:28:21;;;;;;;4.63;3.15;;;16.60;99.90;;;;;;4974800;28;20475;-64
2022/06/06 00:30:47;;;;;;;3.10;2.90;;;16.50;99.90;;;;;;4973610;28;20851;-64
2022/06/06 00:35:58;;;;;;;2.88;2.67;;;16.50;99.90;;;;;;4972844;28;20267;-64
2022/06/06 00:38:25;;;;;;;3.25;3.05;;;16.50;99.90;;;;;;4969209;28;20211;-67
2022/06/06 00:40:51;;;;;;;3.85;2.85;;;16.50;99.90;;;;;;4977675;28;20196;-65
2022/06/06 00:43:18;;;;;;;3.80;2.95;;;16.50;99.90;;;;;;4973873;28;20219;-64
2022/06/06 00:45:56;;;;;;;2.97;2.78;;;16.40;99.90;;;;;;4975359;28;20669;-65
2022/06/06 00:48:24;;;;;;;4.25;2.95;;;16.40;99.90;;;;;;4970376;28;20692;-65
2022/06/06 00:50:55;;;;;;;3.30;2.80;;;16.40;99.90;;;;;;4969999;28;20267;-64
2022/06/06 00:53:30;;;;;;;4.55;2.80;;;16.30;99.90;;;;;;4973890;28;20198;-64
2022/06/06 00:56:02;;;;;;;4.55;3.20;;;16.40;99.90;;;;;;4973317;28;20299;-64
2022/06/06 00:58:31;;;;;;;5.22;3.00;;;16.30;99.90;;;;;;4972441;28;20200;-64
2022/06/06 01:00:58;;;;;;;3.75;3.45;;;16.30;99.90;;;;;;4971434;28;20260;-67
2022/06/06 01:03:28;;;;;;;4.40;3.15;;;16.30;99.90;;;;;;4978601;28;20216;-64
2022/06/06 01:05:55;;;;;;;3.60;3.30;;;16.30;99.90;;;;;;4973687;28;20199;-65
2022/06/06 01:08:22;;;;;;;3.80;3.50;;;16.40;99.90;;;;;;4968172;28;20183;-67
2022/06/06 01:10:48;;;;;;;4.28;3.70;;;16.40;99.90;;;;;;4971588;28;20545;-64
2022/06/06 01:13:16;;;;;;;4.47;4.18;;;16.20;99.90;;;;;;4973616;28;20275;-65
2022/06/06 01:16:17;;;;;;;3.45;3.15;;;16.40;99.90;;;;;;4973284;28;20188;-69
2022/06/06 01:19:08;;;;;;;3.67;3.38;;;16.10;99.90;;;;;;4973060;28;20220;-64
2022/06/06 01:21:46;;;;;;;3.30;3.10;;;16.30;99.90;;;;;;4977051;28;20517;-66
2022/06/06 01:24:40;;;;;;;3.35;3.10;;;16.10;99.90;;;;;;4972269;28;20218;-65
2022/06/06 01:27:19;;;;;;;3.83;3.53;;;16.10;99.90;;;;;;4972544;28;20560;-64
2022/06/06 01:29:50;;;;;;;3.67;3.47;;;16.10;99.90;;;;;;4974831;28;20205;-66
2022/06/06 01:32:20;;;;;;;3.40;3.10;;;15.90;99.90;;;;;;4969296;28;20227;-64
2022/06/06 01:34:48;;;;;;;4.00;3.50;;;15.90;99.90;;;;;;4982277;28;20767;-64
2022/06/06 01:37:33;;;;;;;3.95;3.65;;;15.80;99.90;;;;;;4972794;28;20271;-64
2022/06/06 01:40:02;;;;;;;4.30;3.90;;;15.90;99.90;;;;;;4971981;28;20210;-67
2022/06/06 01:42:46;;;;;;;4.85;3.40;;;16.10;99.90;;;;;;4972116;28;20236;-64
2022/06/06 01:45:47;;;;;;;4.85;3.85;;;15.80;99.90;;;;;;4971698;28;20923;-64
2022/06/06 01:48:20;;;;;;;3.80;3.50;;;15.70;99.90;;;;;;4970842;28;20284;-64
2022/06/06 01:50:46;;;;;;;8.77;4.15;;;15.90;99.90;;;;;;4973771;28;20585;-64
2022/06/06 01:53:21;;;;;;;5.68;3.63;;;15.60;99.90;;;;;;4972145;28;20181;-64
2022/06/06 01:55:49;;;;;;;3.70;3.38;;;15.60;99.90;;;;;;4967987;28;20601;-65
2022/06/06 01:58:25;;;;;;;4.88;3.35;;;15.60;99.90;;;;;;4968342;28;20182;-64
2022/06/06 02:00:51;;;;;;;7.57;3.90;;;15.50;99.90;;;;;;4973601;28;20529;-63
2022/06/06 02:03:17;;;;;;;7.88;3.80;;;15.30;99.90;;;;;;4971391;28;20249;-65
2022/06/06 02:05:43;;;;;;;4.18;3.78;;;15.50;99.90;;;;;;4972483;28;20681;-64
2022/06/06 02:08:09;;;;;;;4.67;3.90;;;15.50;99.90;;;;;;4972287;28;20199;-64
2022/06/06 02:10:36;;;;;;;3.85;3.55;;;15.40;99.90;;;;;;4972553;28;20523;-63
2022/06/06 02:13:02;;;;;;;5.22;3.70;;;15.30;99.90;;;;;;4971667;28;20184;-64
2022/06/06 02:15:28;;;;;;;3.77;3.43;;;15.50;99.90;;;;;;4972458;28;20594;-65
2022/06/06 02:17:55;;;;;;;4.17;3.80;;;15.60;99.90;;;;;;4965122;28;20838;-65
2022/06/06 02:20:22;;;;;;;4.25;3.95;;;15.60;99.90;;;;;;4974874;28;20204;-64
2022/06/06 02:22:49;;;;;;;5.13;3.70;;;15.50;99.90;;;;;;4972353;28;20194;-64
2022/06/06 02:25:15;;;;;;;4.07;3.75;;;15.40;99.90;;;;;;4973611;28;20185;-64
2022/06/06 02:27:41;;;;;;;4.37;3.97;;;15.70;99.90;;;;;;4971187;28;20188;-64
2022/06/06 02:30:13;;;;;;;5.38;3.45;;;15.90;99.90;;;;;;4972310;28;20208;-64
2022/06/06 02:32:40;;;;;;;3.88;3.58;;;15.90;99.90;;;;;;4964597;28;20198;-64
2022/06/06 02:35:08;;;;;;;4.13;3.80;;;15.70;99.90;;;;;;4970295;28;20176;-64
2022/06/06 02:37:34;;;;;;;3.97;3.67;;;15.80;99.90;;;;;;4971011;28;20183;-67
2022/06/06 02:40:00;;;;;;;7.10;3.90;;;15.50;99.90;;;;;;4970053;28;20208;-64
2022/06/06 02:42:25;;;;;;;5.20;4.40;;;15.70;99.90;;;;;;4971844;28;20238;-64
2022/06/06 02:44:51;;;;;;;4.53;4.13;;;15.40;99.90;;;;;;4969204;28;20211;-65
2022/06/06 02:47:16;;;;;;;4.70;4.30;;;15.60;99.90;;;;;;4968275;28;20674;-64
2022/06/06 02:49:42;;;;;;;4.43;4.03;;;15.50;99.90;;;;;;4971858;28;20200;-64
2022/06/06 02:52:08;;;;;;;4.30;3.90;;;15.40;99.90;;;;;;4967857;28;20653;-66
2022/06/06 02:54:33;;;;;;;4.77;4.37;;;15.70;99.90;;;;;;4968843;28;20188;-65
2022/06/06 02:57:01;;;;;;;5.27;4.40;;;15.30;99.90;;;;;;4971005;28;20176;-65
2022/06/06 02:59:28;;;;;;;12.55;3.97;;;15.40;99.90;;;;;;4968587;28;20231;-65
2022/06/06 03:01:53;;;;;;;5.25;4.00;;;15.40;99.90;;;;;;4965460;28;20209;-64
2022/06/06 03:04:19;;;;;;;3.63;3.33;;;15.40;99.90;;;;;;4967386;28;20227;-65
2022/06/06 03:07:04;;;;;;;4.00;3.70;;;15.70;99.90;;;;;;4971266;28;20543;-65
2022/06/06 03:09:46;;;;;;;7.70;4.35;;;15.40;99.90;;;;;;4971895;28;20455;-67
2022/06/06 03:12:45;;;;;;;4.68;4.28;;;15.40;99.90;;;;;;4965787;28;20780;-64
2022/06/06 03:15:20;;;;;;;5.80;4.68;;;15.40;99.90;;;;;;4965132;28;20180;-65
2022/06/06 03:21:16;;;;;;;5.43;4.32;;;15.20;99.90;;;;;;4971089;28;20299;-65
2022/06/06 03:24:03;;;;;;;4.60;4.20;;;15.20;99.90;;;;;;4971113;28;20211;-64
2022/06/06 03:26:54;;;;;;;4.10;3.63;;;15.00;99.90;;;;;;4967044;28;20211;-68
2022/06/06 03:30:04;;;;;;;4.53;4.10;;;15.20;99.90;;;;;;4969685;28;20200;-64
2022/06/06 03:33:06;;;;;;;4.68;4.30;;;15.20;99.90;;;;;;4975539;28;20225;-66
2022/06/06 03:35:47;;;;;;;6.90;4.18;;;15.00;99.90;;;;;;4969200;28;20184;-65
2022/06/06 03:38:56;;;;;;;5.03;3.95;;;15.00;99.90;;;;;;4964008;28;20587;-64
2022/06/06 03:41:32;;;;;;;4.53;4.10;;;15.10;99.90;;;;;;4968655;28;20192;-65
2022/06/06 03:43:57;;;;;;;4.60;4.20;;;15.00;99.90;;;;;;4970889;28;20215;-64
2022/06/06 03:46:40;;;;;;;4.67;4.27;;;15.30;99.90;;;;;;4970387;28;20607;-64
2022/06/06 03:49:21;;;;;;;4.30;3.88;;;15.20;99.90;;;;;;4964545;28;20231;-64
2022/06/06 03:52:05;;;;;;;4.82;4.43;;;15.30;99.90;;;;;;4970908;28;20189;-64
2022/06/06 03:54:49;;;;;;;6.25;4.25;;;15.30;99.90;;;;;;4967387;28;20701;-68
2022/06/06 03:57:18;;;;;;;4.88;4.30;;;15.20;99.90;;;;;;4970212;28;20772;-67
2022/06/06 03:59:47;;;;;;;4.72;4.32;;;15.20;99.90;;;;;;4970211;28;20224;-64
2022/06/06 04:02:21;;;;;;;6.00;5.40;;;15.10;99.90;;;;;;4964174;28;20247;-67
2022/06/06 04:04:47;;;;;;;4.90;4.25;;;15.20;99.90;;;;;;4970966;28;20216;-64
2022/06/06 04:07:13;;;;;;;4.68;4.10;;;15.30;99.90;;;;;;4976336;28;20214;-66
2022/06/06 04:09:39;;;;;;;4.30;3.90;;;15.20;99.90;;;;;;4971709;28;20256;-64
2022/06/06 04:12:42;;;;;;;4.40;4.00;;;15.30;99.90;;;;;;4975680;28;20195;-65
2022/06/06 04:15:37;;;;;;;4.53;4.22;;;15.30;99.90;;;;;;4969813;28;20184;-65
2022/06/06 04:18:09;;;;;;;5.20;4.70;;;15.40;99.90;;;;;;4969549;28;20195;-64
2022/06/06 04:20:34;;;;;;;4.45;4.15;;;15.50;99.90;;;;;;4973629;28;20181;-65
2022/06/06 04:23:38;;;;;;;4.70;3.97;;;15.40;99.90;;;;;;4973288;28;20716;-64
2022/06/06 04:26:33;;;;;;;4.22;3.88;;;15.40;99.90;;;;;;4966557;28;20191;-65
2022/06/06 04:29:10;;;;;;;4.28;3.95;;;15.40;99.90;;;;;;4974047;28;20825;-65
2022/06/06 04:32:00;;;;;;;4.70;4.30;;;15.60;99.90;;;;;;4966890;28;20226;-68
2022/06/06 04:34:54;;;;;;;5.88;4.10;;;15.40;99.90;;;;;;4969071;28;20189;-64
2022/06/06 04:37:54;;;;;;;4.20;3.80;;;15.50;99.90;;;;;;4969344;28;20251;-65
2022/06/06 04:40:42;;;;;;;4.68;4.28;;;15.70;99.90;;;;;;4968698;28;20351;-64
2022/06/06 04:43:17;;;;;;;6.35;4.72;;;15.80;99.90;;;;;;4968663;28;20189;-64
2022/06/06 04:46:07;;;;;;;4.70;4.30;;;16.10;99.90;;;;;;4975180;28;20179;-67
2022/06/06 04:48:34;;;;;;;4.40;4.10;;;15.90;99.90;;;;;;4976996;28;20697;-64
2022/06/06 04:51:01;;;;;;;4.30;3.90;;;16.00;99.90;;;;;;4973504;28;20688;-66
2022/06/06 04:53:29;;;;;;;3.72;3.42;;;16.00;99.90;;;;;;4973161;28;20184;-66
2022/06/06 04:55:56;;;;;;;5.85;4.20;;;16.30;99.90;;;;;;4972128;28;20193;-65
2022/06/06 04:58:26;;;;;;;4.53;4.05;;;16.50;99.90;;;;;;4972518;28;20215;-67
2022/06/06 05:00:51;;;;;;;4.38;4.07;;;16.60;99.90;;;;;;4971198;28;20741;-65
2022/06/06 05:03:17;;;;;;;4.00;3.70;;;16.80;99.90;;;;;;4967395;28;20306;-65
2022/06/06 05:05:46;;;;;;;5.07;4.20;;;17.00;99.90;;;;;;4972802;28;20192;-67
2022/06/06 05:08:40;;;;;;;4.20;3.90;;;16.80;99.90;;;;;;4972768;28;20209;-65
2022/06/06 05:11:21;;;;;;;3.47;3.17;;;17.00;99.90;;;;;;4973065;28;20278;-65
2022/06/06 05:14:07;;;;;;;4.40;4.10;;;17.20;99.90;;;;;;4972508;28;20192;-66
2022/06/06 05:17:03;;;;;;;3.83;3.53;;;17.20;99.90;;;;;;4963386;28;20192;-65
2022/06/06 05:19:57;;;;;;;4.18;3.88;;;17.40;99.90;;;;;;4971984;28;20227;-65
2022/06/06 05:22:38;;;;;;;4.20;3.80;;;17.60;99.90;;;;;;4972130;28;20797;-65
2022/06/06 05:25:34;;;;;;;6.25;3.60;;;17.90;99.90;;;;;;4966534;28;20223;-66
2022/06/06 05:28:18;;;;;;;3.50;3.30;;;18.10;99.90;;;;;;4972461;28;20546;-66
2022/06/06 05:30:56;;;;;;;4.30;3.90;;;18.10;99.90;;;;;;4970822;28;20271;-66
2022/06/06 05:33:57;;;;;;;3.83;3.45;;;18.20;99.90;;;;;;4966929;28;20844;-64
2022/06/06 05:36:41;;;;;;;3.47;3.15;;;18.10;99.90;;;;;;4981046;28;20188;-65
2022/06/06 05:39:21;;;;;;;3.88;3.58;;;18.90;99.90;;;;;;4972547;28;20202;-64
2022/06/06 05:42:09;;;;;;;3.65;3.35;;;18.50;99.90;;;;;;4967851;28;20286;-65
2022/06/06 05:45:08;;;;;;;4.40;4.00;;;18.60;99.90;;;;;;4972782;28;20215;-67
2022/06/06 05:47:37;;;;;;;4.10;3.75;;;18.60;99.90;;;;;;4964732;28;20191;-65
2022/06/06 05:50:30;;;;;;;4.40;4.00;;;18.80;99.90;;;;;;4970906;28;20262;-66
2022/06/06 05:53:14;;;;;;;3.90;3.60;;;19.00;99.90;;;;;;4971721;28;20205;-65
2022/06/06 05:55:49;;;;;;;4.85;3.80;;;19.10;99.90;;;;;;4971538;28;20606;-66
2022/06/06 05:58:46;;;;;;;4.07;3.78;;;19.30;99.90;;;;;;4972007;28;20185;-65
2022/06/06 06:01:26;;;;;;;4.45;3.95;;;19.60;99.90;;;;;;4965458;28;20230;-65
2022/06/06 06:04:19;;;;;;;4.25;3.90;;;19.60;99.90;;;;;;4971067;28;20608;-64
2022/06/06 06:07:12;;;;;;;3.78;3.58;;;19.60;99.90;;;;;;4975309;28;20187;-65
2022/06/06 06:09:47;;;;;;;5.03;3.80;;;19.70;99.90;;;;;;4970628;28;20258;-64
2022/06/06 06:12:26;;;;;;;4.43;3.67;;;19.80;99.90;;;;;;4971697;28;20270;-65
2022/06/06 06:15:21;;;;;;;4.38;4.00;;;19.90;99.90;;;;;;4970956;28;20719;-65
2022/06/06 06:17:52;;;;;;;4.30;3.90;;;19.90;99.90;;;;;;4964581;28;20192;-67
2022/06/06 06:20:20;;;;;;;3.67;3.47;;;20.00;99.90;;;;;;4972003;28;20705;-65
2022/06/06 06:22:55;;;;;;;4.20;3.90;;;20.10;99.90;;;;;;4970759;28;20271;-64
2022/06/06 06:25:23;;;;;;;4.60;4.20;;;20.20;99.90;;;;;;4966045;28;20208;-65
2022/06/06 06:27:52;;;;;;;4.30;3.90;;;20.50;99.90;;;;;;4971090;28;20267;-64
2022/06/06 06:30:19;;;;;;;4.35;3.95;;;20.70;99.90;;;;;;4975715;28;20192;-66
2022/06/06 06:33:12;;;;;;;4.13;3.83;;;20.90;99.90;;;;;;4967413;28;20183;-65
2022/06/06 06:36:01;;;;;;;4.05;3.75;;;21.10;99.90;;;;;;4966166;28;20204;-65
2022/06/06 06:38:50;;;;;;;5.28;4.05;;;21.20;99.90;;;;;;4971203;28;20223;-65
2022/06/06 06:41:32;;;;;;;3.88;3.58;;;21.30;99.90;;;;;;4969173;28;20183;-67
2022/06/06 06:44:12;;;;;;;3.25;3.00;;;21.50;99.90;;;;;;4971450;28;20266;-67
2022/06/06 06:46:50;;;;;;;5.25;3.65;;;21.70;99.90;;;;;;4965596;28;20657;-64
2022/06/06 06:49:39;;;;;;;4.20;3.80;;;21.90;99.90;;;;;;4971818;28;20200;-65
2022/06/06 06:52:23;;;;;;;4.20;3.90;;;21.70;99.90;;;;;;4965649;28;20627;-66
2022/06/06 06:55:08;;;;;;;4.22;3.38;;;21.80;99.90;;;;;;4970162;28;20217;-65
2022/06/06 06:57:58;;;;;;;4.22;3.92;;;22.10;99.90;;;;;;4967004;28;20188;-65
2022/06/06 07:00:24;;;;;;;4.10;3.80;;;22.10;99.90;;;;;;4969295;28;20590;-66
2022/06/06 07:09:20;;;;;;;3.93;3.63;;;22.90;99.60;;;;;;4966221;28;21019;-65
2022/06/06 07:12:13;;;;;;;3.53;3.23;;;24.10;98.00;;;;;;4970097;28;21846;-66
2022/06/06 07:15:01;;;;;;;3.57;3.37;;;24.80;96.20;;;;;;4970934;28;20424;-66
2022/06/06 07:17:30;;;;;;;4.00;3.60;;;26.00;93.80;;;;;;4960965;28;20553;-65
2022/06/06 07:20:08;;;;;;;3.47;3.17;;;26.30;91.90;;;;;;4969420;28;20449;-66
2022/06/06 07:25:23;;;;;;;3.23;3.03;;;26.90;90.70;;;;;;4966642;28;20598;-66
2022/06/06 07:27:49;;;;;;;4.37;4.00;;;27.50;90.00;;;;;;4968921;28;20821;-66
2022/06/06 07:30:16;;;;;;;3.70;3.40;;;27.90;89.10;;;;;;4971189;28;20517;-65
2022/06/06 07:32:44;;;;;;;4.10;3.40;;;27.80;87.70;;;;;;4965689;28;20439;-65
2022/06/06 07:35:34;;;;;;;3.83;3.50;;;27.40;86.30;;;;;;4971216;28;20936;-65
2022/06/06 07:38:08;;;;;;;3.90;3.57;;;27.50;86.80;;;;;;4970197;28;20654;-66
2022/06/06 07:40:53;;;;;;;3.50;3.20;;;26.30;89.00;;;;;;4968832;28;20450;-67
2022/06/06 07:43:38;;;;;;;3.53;3.23;;;26.00;90.20;;;;;;4967543;28;20766;-65
2022/06/06 07:46:17;;;;;;;3.80;3.50;;;25.60;90.60;;;;;;4967501;28;20484;-65
2022/06/06 07:49:03;;;;;;;4.03;3.73;;;25.40;91.10;;;;;;4973779;28;20447;-66
2022/06/06 07:51:50;;;;;;;5.07;3.70;;;25.80;90.10;;;;;;4976382;28;20498;-65
2022/06/06 07:54:19;;;;;;;3.87;3.57;;;26.60;86.90;;;;;;4974148;28;20514;-66
2022/06/06 07:57:06;;;;;;;3.60;3.37;;;28.00;81.20;;;;;;4973508;28;20446;-66
2022/06/06 07:59:47;;;;;;;3.43;3.13;;;29.10;77.40;;;;;;4971070;28;20474;-66
2022/06/06 08:02:37;;;;;;;3.47;3.07;;;29.60;73.90;;;;;;4969836;28;20448;-68
2022/06/06 08:05:06;;;;;;;4.07;3.13;;;30.40;71.40;;;;;;4969870;28;20459;-64
2022/06/06 08:07:42;;;;;;;3.33;3.03;;;30.10;69.90;;;;;;4977612;28;20417;-67
2022/06/06 08:10:26;;;;;;;3.23;3.03;;;29.30;71.90;;;;;;4962811;28;20461;-67
2022/06/06 08:13:12;;;;;;;3.37;3.07;;;28.60;72.50;;;;;;4974130;28;20435;-66
2022/06/06 08:15:56;;;;;;;3.63;2.90;;;28.60;73.00;;;;;;4973976;28;20888;-67
2022/06/06 08:18:52;;;;;;;2.97;2.77;;;29.30;71.10;;;;;;4969307;28;20421;-64
2022/06/06 08:21:24;;;;;;;2.70;2.60;;;30.00;68.60;;;;;;4968333;28;20424;-64
2022/06/06 08:23:55;;;;;;;2.93;2.73;;;31.20;65.50;;;;;;4973602;28;20878;-65
2022/06/06 08:26:23;;;;;;;2.83;2.50;;;31.60;62.10;;;;;;4969557;28;20474;-64
2022/06/06 08:28:51;;;;;;;2.80;2.60;;;32.10;58.60;;;;;;4969987;28;20565;-65
2022/06/06 08:31:17;;;;;;;2.70;2.50;;;33.20;56.50;;;;;;4970482;28;20468;-64
2022/06/06 08:33:42;;;;;;;2.67;2.53;;;33.80;53.70;;;;;;4971375;28;20435;-64
2022/06/06 08:36:28;;;;;;;2.80;2.60;;;33.80;53.80;;;;;;4973170;28;20424;-64
2022/06/06 08:39:20;;;;;;;3.27;2.97;;;34.50;53.10;;;;;;4972698;28;20227;-64
2022/06/06 08:42:06;;;;;;;3.00;2.70;;;34.50;52.70;;;;;;4971720;28;20447;-64
2022/06/06 08:44:50;;;;;;;2.50;2.40;;;34.10;51.60;;;;;;4973859;28;20960;-64
2022/06/06 08:47:34;;;;;;;3.03;2.80;;;35.80;49.50;;;;;;4963658;28;20866;-64
2022/06/06 08:53:28;;;;;;;2.90;2.40;;;35.20;47.40;;;;;;4973145;28;21318;-64
2022/06/06 08:56:11;;;;;;;2.70;2.57;;;33.90;49.20;;;;;;4971198;28;20440;-64
2022/06/06 08:58:58;;;;;;;2.30;2.20;;;33.60;49.80;;;;;;4969767;28;21059;-64
2022/06/06 09:01:43;;;;;;;2.93;2.63;;;32.90;49.80;;;;;;4974601;28;20437;-64
2022/06/06 09:04:39;;;;;;;2.50;2.30;;;32.00;51.70;;;;;;4973538;28;20472;-66
2022/06/06 09:07:42;;;;;;;2.50;2.30;;;31.50;52.20;;;;;;4965524;28;20426;-65
2022/06/06 09:10:08;;;;;;;3.13;2.77;;;32.20;52.60;;;;;;4962874;28;20860;-64
2022/06/06 09:12:49;;;;;;;2.83;2.63;;;32.80;50.70;;;;;;4973214;28;20435;-66
2022/06/06 09:15:35;;;;;;;2.70;2.57;;;33.20;51.10;;;;;;4973037;28;20190;-66
2022/06/06 09:18:38;;;;;;;2.37;2.00;;;34.80;47.30;;;;;;4970943;28;20439;-67
2022/06/06 09:21:40;;;;;;;2.80;2.00;;;34.10;46.20;;;;;;4975976;28;20443;-64
2022/06/06 09:24:28;;;;;;;2.30;2.20;;;33.50;46.70;;;;;;4971163;28;20510;-66
2022/06/06 09:27:15;;;;;;;2.60;2.40;;;32.20;48.80;;;;;;4971598;28;20448;-64
2022/06/06 09:29:46;;;;;;;2.90;2.70;;;31.30;50.00;;;;;;4966454;28;20476;-64
2022/06/06 09:32:30;;;;;;;2.97;2.37;;;31.50;51.60;;;;;;4972529;28;20445;-67
2022/06/06 09:35:29;;;;;;;2.20;2.03;;;32.30;48.30;;;;;;4972085;28;21020;-65
2022/06/06 09:38:21;;;;;;;2.07;1.93;;;34.00;47.50;;;;;;4971031;28;20435;-64
2022/06/06 09:41:10;;;;;;;2.17;2.07;;;34.30;45.50;;;;;;4973041;28;20443;-65
2022/06/06 09:43:59;;;;;;;4.50;2.00;;;33.70;44.50;;;;;;4969879;28;20487;-65
2022/06/06 09:46:59;;;;;;;3.20;1.90;;;34.50;44.40;;;;;;4969640;28;20786;-64
2022/06/06 09:49:47;;;;;;;2.40;2.20;;;34.20;43.50;;;;;;4974902;28;20468;-66
2022/06/06 09:52:24;;;;;;;2.00;1.80;;;33.50;45.10;;;;;;4964947;28;20467;-65
2022/06/06 10:01:00;;;;;;;2.40;2.20;;;36.20;43.50;;;;;;4969258;28;20576;-65
2022/06/06 10:03:55;;;;;;;2.20;2.00;;;36.80;40.50;;;;;;4967610;28;20486;-64
2022/06/06 10:06:52;;;;;;;2.90;1.90;;;37.30;38.90;;;;;;4970727;28;20443;-65
2022/06/06 10:09:36;;;;;;;2.20;1.90;;;36.00;39.80;;;;;;4967878;28;20468;-64
2022/06/06 10:12:42;;;;;;;2.87;2.30;;;34.90;39.80;;;;;;4964698;28;20432;-65
2022/06/06 10:15:38;;;;;;;2.40;2.20;;;33.40;42.20;;;;;;4969549;28;20435;-67
2022/06/06 10:18:31;;;;;;;3.83;2.33;;;33.90;42.90;;;;;;4964511;28;20505;-65
2022/06/06 10:21:47;;;;;;;2.93;2.63;;;32.70;44.20;;;;;;4971913;28;20765;-66
2022/06/06 10:24:48;;;;;;;2.60;2.40;;;32.80;45.70;;;;;;4963011;28;20645;-66
2022/06/06 10:27:19;;;;;;;2.07;1.97;;;32.20;46.00;;;;;;4967812;28;20834;-64
2022/06/06 10:32:50;;;;;;;2.20;2.10;;;32.90;45.30;;;;;;4968318;28;21321;-67
2022/06/06 10:35:29;;;;;;;2.00;1.90;;;32.60;44.80;;;;;;4961696;28;20494;-65
2022/06/06 10:38:05;;;;;;;3.70;2.00;;;32.90;45.10;;;;;;4970589;28;20501;-64
2022/06/06 10:40:43;;;;;;;2.60;2.40;;;32.40;45.50;;;;;;4971194;28;20438;-66
2022/06/06 10:43:37;;;;;;;2.20;2.10;;;31.30;47.80;;;;;;4965833;28;20431;-65
2022/06/06 10:46:20;;;;;;;3.40;2.40;;;30.70;48.50;;;;;;4961068;28;21209;-64
2022/06/06 10:49:01;;;;;;;2.90;2.70;;;30.10;49.40;;;;;;4971089;28;20464;-64
2022/06/06 10:51:42;;;;;;;2.80;2.53;;;29.30;50.60;;;;;;4971513;28;20443;-65
2022/06/06 10:54:45;;;;;;;3.10;2.90;;;28.30;52.50;;;;;;4967215;28;20461;-64
2022/06/06 10:57:43;;;;;;;2.97;2.77;;;27.60;55.10;;;;;;4968599;28;20455;-64
2022/06/06 11:00:23;;;;;;;2.37;2.27;;;27.20;56.60;;;;;;4966400;28;20454;-64
2022/06/06 11:03:26;;;;;;;2.33;2.23;;;26.80;56.20;;;;;;4964468;28;20541;-65
2022/06/06 11:06:14;;;;;;;2.90;2.40;;;26.70;56.00;;;;;;4968804;28;20841;-69
2022/06/06 11:09:12;;;;;;;2.33;2.10;;;27.50;55.70;;;;;;4971059;28;20456;-65
2022/06/06 11:11:58;;;;;;;3.70;2.50;;;27.90;53.80;;;;;;4967696;28;20443;-64
2022/06/06 11:14:36;;;;;;;3.03;2.10;;;28.30;53.30;;;;;;4964534;28;20442;-66
2022/06/06 11:17:13;;;;;;;2.37;2.17;;;28.00;53.60;;;;;;4961029;28;20446;-64
2022/06/06 11:20:12;;;;;;;4.27;2.40;;;27.70;54.70;;;;;;4971764;28;20439;-64
2022/06/06 11:22:43;;;;;;;2.77;2.50;;;27.70;55.40;;;;;;4969364;28;20478;-64
2022/06/06 11:25:13;;;;;;;3.10;2.80;;;27.80;55.40;;;;;;4974029;28;20992;-64
2022/06/06 11:28:07;;;;;;;3.13;2.40;;;27.70;55.80;;;;;;4976471;28;20896;-66
2022/06/06 11:31:04;;;;;;;2.80;2.60;;;27.70;55.70;;;;;;4974208;28;20434;-65
2022/06/06 11:33:44;;;;;;;3.23;2.90;;;27.80;56.40;;;;;;4974047;28;20467;-65
2022/06/06 11:36:37;;;;;;;2.80;2.53;;;27.60;56.30;;;;;;4970499;28;20506;-65
2022/06/06 11:39:37;;;;;;;2.97;2.23;;;27.60;56.70;;;;;;4967023;28;20605;-65
2022/06/06 11:42:30;;;;;;;2.90;2.60;;;27.30;55.30;;;;;;4971911;28;20972;-65
2022/06/06 11:45:10;;;;;;;6.13;2.57;;;27.10;56.10;;;;;;4978176;28;20472;-67
2022/06/06 11:48:01;;;;;;;3.17;2.97;;;27.10;55.50;;;;;;4969045;28;21029;-65
2022/06/06 11:50:38;;;;;;;3.33;2.60;;;26.80;56.10;;;;;;4974799;28;20449;-64
2022/06/06 11:53:10;;;;;;;2.80;2.60;;;26.60;56.60;;;;;;4972503;28;20441;-66
2022/06/06 11:56:04;;;;;;;2.50;2.30;;;26.60;57.10;;;;;;4970212;28;20502;-65
2022/06/06 11:59:04;;;;;;;2.83;2.63;;;26.30;57.80;;;;;;4970719;28;20536;-64
2022/06/06 12:01:43;;;;;;;2.77;2.60;;;26.10;57.80;;;;;;4975886;28;20452;-65
2022/06/06 12:04:38;;;;;;;3.60;2.43;;;25.90;58.90;;;;;;4971884;28;20470;-65
2022/06/06 12:07:19;;;;;;;2.27;2.17;;;26.10;58.50;;;;;;4969200;28;20794;-64
2022/06/06 12:10:18;;;;;;;2.53;2.33;;;26.20;57.90;;;;;;4974217;28;20450;-64
2022/06/06 12:12:50;;;;;;;2.63;2.43;;;26.20;57.70;;;;;;4971507;28;20433;-66
2022/06/06 12:15:38;;;;;;;2.70;2.50;;;26.10;57.20;;;;;;4974219;28;20441;-65
2022/06/06 12:18:13;;;;;;;3.10;2.80;;;25.90;57.90;;;;;;4967137;28;20439;-65
2022/06/06 12:21:07;;;;;;;3.10;2.30;;;25.70;58.80;;;;;;4975548;28;20427;-65
2022/06/06 12:23:45;;;;;;;2.23;2.13;;;25.50;59.40;;;;;;4970660;28;20468;-64
2022/06/06 12:26:55;;;;;;;2.40;2.20;;;25.30;59.40;;;;;;4971981;28;20789;-64
2022/06/06 12:29:58;;;;;;;3.13;2.80;;;25.30;59.20;;;;;;4964112;28;20452;-65
2022/06/06 12:32:54;;;;;;;2.47;2.27;;;25.20;59.20;;;;;;4964136;28;20435;-65
2022/06/06 12:35:34;;;;;;;3.63;3.33;;;25.40;58.30;;;;;;4968206;28;20440;-64
2022/06/06 12:38:03;;;;;;;2.30;2.20;;;25.70;57.80;;;;;;4978785;28;20432;-66
2022/06/06 12:40:42;;;;;;;2.63;2.43;;;25.80;57.10;;;;;;4970899;28;20543;-64
2022/06/06 12:43:36;;;;;;;2.37;2.17;;;25.70;57.00;;;;;;4971176;28;20524;-66
2022/06/06 12:46:23;;;;;;;4.30;2.63;;;25.70;57.20;;;;;;4969213;28;20447;-67
2022/06/06 12:49:06;;;;;;;3.07;2.77;;;25.90;57.50;;;;;;4971681;28;20587;-65
2022/06/06 12:52:00;;;;;;;2.20;2.10;;;26.00;57.40;;;;;;4973490;28;20957;-66
2022/06/06 12:58:07;;;;;;;2.40;2.20;;;25.60;58.00;;;;;;4972255;28;20431;-66
2022/06/06 13:03:37;;;;;;;2.80;2.23;;;25.80;57.60;;;;;;4967950;28;21061;-66
2022/06/06 13:06:31;;;;;;;2.60;2.40;;;25.90;57.60;;;;;;4965284;28;20437;-66
2022/06/06 13:09:15;;;;;;;2.30;2.20;;;25.90;57.70;;;;;;4967959;28;20985;-66
2022/06/06 13:12:15;;;;;;;3.13;2.40;;;26.00;57.60;;;;;;4970263;28;20492;-65
2022/06/06 13:14:47;;;;;;;3.00;2.80;;;25.80;57.80;;;;;;4988204;28;20423;-69
2022/06/06 13:17:29;;;;;;;2.50;2.30;;;25.70;58.50;;;;;;4966764;28;20507;-66
2022/06/06 13:20:28;;;;;;;2.50;2.40;;;25.60;58.90;;;;;;4974172;28;20449;-65
2022/06/06 13:23:15;;;;;;;3.43;2.60;;;25.30;59.30;;;;;;4972578;28;20435;-65
2022/06/06 13:25:48;;;;;;;3.40;3.10;;;25.10;59.90;;;;;;4965599;28;20456;-65
2022/06/06 13:28:40;;;;;;;3.73;2.90;;;24.90;60.00;;;;;;4972102;28;20920;-67
2022/06/06 13:31:14;;;;;;;3.07;2.77;;;24.70;60.00;;;;;;4965455;28;20451;-64
2022/06/06 13:33:53;;;;;;;2.60;2.40;;;24.70;62.20;;;;;;4972963;28;20454;-64
2022/06/06 13:36:19;;;;;;;2.73;2.53;;;24.50;62.00;;;;;;4966255;28;20415;-65
2022/06/06 13:38:57;;;;;;;3.70;2.60;;;24.30;62.00;;;;;;4972148;28;20949;-65
2022/06/06 13:41:49;;;;;;;3.23;2.87;;;24.20;63.10;;;;;;4971431;28;20459;-66
2022/06/06 13:44:45;;;;;;;3.20;2.90;;;24.10;64.30;;;;;;4966743;28;20872;-66
2022/06/06 13:47:20;;;;;;;4.80;2.83;;;24.10;64.60;;;;;;4964474;28;20439;-64
2022/06/06 13:50:14;;;;;;;2.63;2.43;;;23.80;64.30;;;;;;4971115;28;20450;-64
2022/06/06 13:52:43;;;;;;;2.30;2.20;;;23.80;65.10;;;;;;4965907;28;20789;-64
2022/06/06 13:55:31;;;;;;;3.27;3.00;;;23.80;65.30;;;;;;4974521;28;20447;-64
2022/06/06 13:57:59;;;;;;;3.07;2.87;;;23.70;65.50;;;;;;4978626;28;20478;-64
2022/06/06 14:00:32;;;;;;;2.73;2.53;;;23.70;65.40;;;;;;4971921;28;20813;-64
2022/06/06 14:03:17;;;;;;;2.87;2.50;;;23.60;65.30;;;;;;4965094;28;20517;-64
2022/06/06 14:05:57;;;;;;;2.43;2.23;;;23.60;65.90;;;;;;4971836;28;20447;-64
2022/06/06 14:08:23;;;;;;;2.50;2.30;;;23.70;66.10;;;;;;4966237;28;20535;-64
2022/06/06 14:11:05;;;;;;;4.00;2.63;;;23.80;66.30;;;;;;4970849;28;20972;-64
2022/06/06 14:13:47;;;;;;;2.50;2.30;;;23.90;66.80;;;;;;4975586;28;20459;-66
2022/06/06 14:16:44;;;;;;;3.77;2.40;;;24.00;66.70;;;;;;4966205;28;20484;-66
2022/06/06 14:19:13;;;;;;;2.70;2.50;;;23.70;66.10;;;;;;4966695;28;20808;-65
2022/06/06 14:22:07;;;;;;;2.40;2.20;;;23.70;66.50;;;;;;4970256;28;20515;-62
2022/06/06 14:24:36;;;;;;;5.30;2.80;;;23.80;67.50;;;;;;4966523;28;20566;-62
2022/06/06 14:27:10;;;;;;;3.00;2.70;;;23.70;68.10;;;;;;4972067;28;20439;-62
2022/06/06 14:29:38;;;;;;;3.00;2.70;;;23.70;67.30;;;;;;4971607;28;20978;-62